sensor_id;sensor_type;location;lat;lon;timestamp;pressure;altitude;pressure_sealevel;temperature;humidity
58385;BME280;44185;47.844;8.966;2023-04-28T00:01:50;96028.59;;;8.86;100.00
58385;BME280;44185;47.844;8.966;2023-04-28T00:04:15;96036.25;;;8.89;100.00
58385;BME280;44185;47.844;8.966;2023-04-28T00:06:41;96035.22;;;8.81;100.00
58385;BME280;44185;47.844;8.966;2023-04-28T00:09:06;96027.31;;;8.81;100.00
58385;BME280;44185;47.844;8.966;2023-04-28T00:11:32;96029.69;;;8.84;100.00
58385;BME280;44185;47.844;8.966;2023-04-28T00:13:59;96033.66;;;8.78;100.00
58385;BME280;44185;47.844;8.966;2023-04-28T00:16:24;96030.03;;;8.79;100.00
58385;BME280;44185;47.844;8.966;2023-04-28T00:18:49;96033.41;;;8.81;100.00
58385;BME280;44185;47.844;8.966;2023-04-28T00:21:15;96021.03;;;8.82;100.00
58385;BME280;44185;47.844;8.966;2023-04-28T00:23:41;96025.69;;;8.89;100.00
58385;BME280;44185;47.844;8.966;2023-04-28T00:26:06;96021.72;;;8.95;100.00
58385;BME280;44185;47.844;8.966;2023-04-28T00:28:32;96017.66;;;8.91;100.00
58385;BME280;44185;47.844;8.966;2023-04-28T00:30:59;96017.44;;;8.83;100.00
58385;BME280;44185;47.844;8.966;2023-04-28T00:33:24;96016.59;;;8.82;100.00
58385;BME280;44185;47.844;8.966;2023-04-28T00:35:57;96015.91;;;8.80;100.00
58385;BME280;44185;47.844;8.966;2023-04-28T00:38:23;96006.91;;;8.83;100.00
58385;BME280;44185;47.844;8.966;2023-04-28T00:40:48;95997.69;;;8.77;100.00
58385;BME280;44185;47.844;8.966;2023-04-28T00:43:14;96002.00;;;8.78;100.00
58385;BME280;44185;47.844;8.966;2023-04-28T00:45:39;96002.56;;;8.82;100.00
58385;BME280;44185;47.844;8.966;2023-04-28T00:48:06;95998.97;;;8.83;100.00
58385;BME280;44185;47.844;8.966;2023-04-28T00:50:32;95998.47;;;8.89;100.00
58385;BME280;44185;47.844;8.966;2023-04-28T00:52:59;96001.28;;;8.97;100.00
58385;BME280;44185;47.844;8.966;2023-04-28T00:55:25;96007.31;;;8.99;100.00
58385;BME280;44185;47.844;8.966;2023-04-28T00:57:54;95996.34;;;9.04;100.00
58385;BME280;44185;47.844;8.966;2023-04-28T01:00:20;95998.84;;;9.06;100.00
58385;BME280;44185;47.844;8.966;2023-04-28T01:02:45;95998.66;;;8.97;100.00
58385;BME280;44185;47.844;8.966;2023-04-28T01:05:12;95996.16;;;8.96;100.00
58385;BME280;44185;47.844;8.966;2023-04-28T01:07:39;95992.13;;;8.92;100.00
58385;BME280;44185;47.844;8.966;2023-04-28T01:10:05;95987.19;;;8.87;100.00
58385;BME280;44185;47.844;8.966;2023-04-28T01:12:31;95990.13;;;8.84;100.00
58385;BME280;44185;47.844;8.966;2023-04-28T01:14:56;95993.56;;;8.84;100.00
58385;BME280;44185;47.844;8.966;2023-04-28T01:17:22;95985.09;;;8.81;100.00
58385;BME280;44185;47.844;8.966;2023-04-28T01:19:48;95979.56;;;8.84;100.00
58385;BME280;44185;47.844;8.966;2023-04-28T01:22:15;95975.94;;;8.85;100.00
58385;BME280;44185;47.844;8.966;2023-04-28T01:24:41;95976.53;;;8.88;100.00
58385;BME280;44185;47.844;8.966;2023-04-28T01:27:07;95977.03;;;8.82;100.00
58385;BME280;44185;47.844;8.966;2023-04-28T01:29:32;95968.28;;;8.82;100.00
58385;BME280;44185;47.844;8.966;2023-04-28T01:31:58;95972.00;;;8.79;100.00
58385;BME280;44185;47.844;8.966;2023-04-28T01:34:23;95978.47;;;8.86;100.00
58385;BME280;44185;47.844;8.966;2023-04-28T01:36:49;95971.25;;;8.88;100.00
58385;BME280;44185;47.844;8.966;2023-04-28T01:39:14;95970.72;;;8.95;100.00
58385;BME280;44185;47.844;8.966;2023-04-28T01:41:41;95968.38;;;8.92;100.00
58385;BME280;44185;47.844;8.966;2023-04-28T01:44:06;95972.78;;;8.91;100.00
58385;BME280;44185;47.844;8.966;2023-04-28T01:46:32;95980.81;;;8.89;100.00
58385;BME280;44185;47.844;8.966;2023-04-28T01:48:57;95981.34;;;8.83;100.00
58385;BME280;44185;47.844;8.966;2023-04-28T01:51:23;95986.69;;;8.93;100.00
58385;BME280;44185;47.844;8.966;2023-04-28T01:53:49;95984.75;;;8.95;100.00
58385;BME280;44185;47.844;8.966;2023-04-28T01:56:32;95985.47;;;8.97;100.00
58385;BME280;44185;47.844;8.966;2023-04-28T01:58:59;95970.16;;;8.91;100.00
58385;BME280;44185;47.844;8.966;2023-04-28T02:01:25;95976.84;;;8.95;100.00
58385;BME280;44185;47.844;8.966;2023-04-28T02:03:50;95977.09;;;8.92;100.00
58385;BME280;44185;47.844;8.966;2023-04-28T02:06:16;95977.69;;;8.96;100.00
58385;BME280;44185;47.844;8.966;2023-04-28T02:08:41;95983.47;;;8.89;100.00
58385;BME280;44185;47.844;8.966;2023-04-28T02:11:06;95984.06;;;8.93;100.00
58385;BME280;44185;47.844;8.966;2023-04-28T02:13:32;95990.56;;;8.89;100.00
58385;BME280;44185;47.844;8.966;2023-04-28T02:16:00;95990.03;;;8.95;100.00
58385;BME280;44185;47.844;8.966;2023-04-28T02:18:26;96007.41;;;8.98;100.00
58385;BME280;44185;47.844;8.966;2023-04-28T02:20:51;96009.09;;;8.99;100.00
58385;BME280;44185;47.844;8.966;2023-04-28T02:23:17;96016.31;;;8.97;100.00
58385;BME280;44185;47.844;8.966;2023-04-28T02:25:42;96018.22;;;8.95;100.00
58385;BME280;44185;47.844;8.966;2023-04-28T02:28:08;96019.91;;;8.96;100.00
58385;BME280;44185;47.844;8.966;2023-04-28T02:30:33;96025.31;;;8.94;100.00
58385;BME280;44185;47.844;8.966;2023-04-28T02:33:00;96015.22;;;8.99;100.00
58385;BME280;44185;47.844;8.966;2023-04-28T02:35:25;96023.78;;;8.92;100.00
58385;BME280;44185;47.844;8.966;2023-04-28T02:37:51;96025.78;;;8.99;100.00
58385;BME280;44185;47.844;8.966;2023-04-28T02:40:17;96026.88;;;8.97;100.00
58385;BME280;44185;47.844;8.966;2023-04-28T02:42:42;96019.06;;;8.95;100.00
58385;BME280;44185;47.844;8.966;2023-04-28T02:45:08;96028.59;;;8.86;100.00
58385;BME280;44185;47.844;8.966;2023-04-28T02:47:34;96016.16;;;8.77;100.00
58385;BME280;44185;47.844;8.966;2023-04-28T02:50:01;96022.38;;;8.76;100.00
58385;BME280;44185;47.844;8.966;2023-04-28T02:52:27;96023.94;;;8.78;100.00
58385;BME280;44185;47.844;8.966;2023-04-28T02:54:52;96021.19;;;8.80;100.00
58385;BME280;44185;47.844;8.966;2023-04-28T02:57:18;96020.09;;;8.83;100.00
58385;BME280;44185;47.844;8.966;2023-04-28T02:59:43;96021.91;;;8.71;100.00
58385;BME280;44185;47.844;8.966;2023-04-28T03:02:08;96025.78;;;8.66;100.00
58385;BME280;44185;47.844;8.966;2023-04-28T03:04:34;96020.75;;;8.63;100.00
58385;BME280;44185;47.844;8.966;2023-04-28T03:07:01;96020.66;;;8.53;100.00
58385;BME280;44185;47.844;8.966;2023-04-28T03:09:26;96027.72;;;8.64;100.00
58385;BME280;44185;47.844;8.966;2023-04-28T03:11:51;96026.06;;;8.52;100.00
58385;BME280;44185;47.844;8.966;2023-04-28T03:14:17;96034.53;;;8.55;100.00
58385;BME280;44185;47.844;8.966;2023-04-28T03:16:42;96035.25;;;8.57;100.00
58385;BME280;44185;47.844;8.966;2023-04-28T03:19:08;96040.34;;;8.49;100.00
58385;BME280;44185;47.844;8.966;2023-04-28T03:21:33;96026.41;;;8.47;100.00
58385;BME280;44185;47.844;8.966;2023-04-28T03:24:00;96015.78;;;8.37;100.00
58385;BME280;44185;47.844;8.966;2023-04-28T03:26:25;96015.84;;;8.47;100.00
58385;BME280;44185;47.844;8.966;2023-04-28T03:28:51;96002.31;;;8.52;100.00
58385;BME280;44185;47.844;8.966;2023-04-28T03:31:17;96007.69;;;8.50;100.00
58385;BME280;44185;47.844;8.966;2023-04-28T03:33:42;96009.03;;;8.44;100.00
58385;BME280;44185;47.844;8.966;2023-04-28T03:36:08;96001.50;;;8.40;100.00
58385;BME280;44185;47.844;8.966;2023-04-28T03:38:33;96002.00;;;8.33;100.00
58385;BME280;44185;47.844;8.966;2023-04-28T03:41:00;96015.53;;;8.40;100.00
58385;BME280;44185;47.844;8.966;2023-04-28T03:43:26;96018.38;;;8.49;100.00
58385;BME280;44185;47.844;8.966;2023-04-28T03:45:51;96010.75;;;8.34;100.00
58385;BME280;44185;47.844;8.966;2023-04-28T03:48:17;95998.88;;;8.28;100.00
58385;BME280;44185;47.844;8.966;2023-04-28T03:50:42;95996.53;;;8.25;100.00
58385;BME280;44185;47.844;8.966;2023-04-28T03:53:08;95991.59;;;8.20;100.00
58385;BME280;44185;47.844;8.966;2023-04-28T03:55:33;95999.16;;;8.25;100.00
58385;BME280;44185;47.844;8.966;2023-04-28T03:58:00;96008.41;;;8.19;100.00
58385;BME280;44185;47.844;8.966;2023-04-28T04:00:26;96004.31;;;8.27;100.00
58385;BME280;44185;47.844;8.966;2023-04-28T04:02:51;96010.13;;;8.42;100.00
58385;BME280;44185;47.844;8.966;2023-04-28T04:05:17;96016.38;;;8.41;100.00
58385;BME280;44185;47.844;8.966;2023-04-28T04:07:42;96016.47;;;8.51;100.00
58385;BME280;44185;47.844;8.966;2023-04-28T04:10:08;96008.09;;;8.34;100.00
58385;BME280;44185;47.844;8.966;2023-04-28T04:12:34;96016.25;;;8.31;100.00
58385;BME280;44185;47.844;8.966;2023-04-28T04:15:01;96018.69;;;8.22;100.00
58385;BME280;44185;47.844;8.966;2023-04-28T04:17:26;96021.81;;;8.16;100.00
58385;BME280;44185;47.844;8.966;2023-04-28T04:19:51;96021.81;;;8.16;100.00
58385;BME280;44185;47.844;8.966;2023-04-28T04:22:17;96021.28;;;8.34;100.00
58385;BME280;44185;47.844;8.966;2023-04-28T04:24:42;96015.91;;;8.36;100.00
58385;BME280;44185;47.844;8.966;2023-04-28T04:27:08;96013.84;;;8.39;100.00
58385;BME280;44185;47.844;8.966;2023-04-28T04:29:33;96003.06;;;8.31;100.00
58385;BME280;44185;47.844;8.966;2023-04-28T04:32:00;95998.69;;;8.20;100.00
58385;BME280;44185;47.844;8.966;2023-04-28T04:34:25;96014.13;;;8.25;100.00
58385;BME280;44185;47.844;8.966;2023-04-28T04:36:51;96007.53;;;8.30;100.00
58385;BME280;44185;47.844;8.966;2023-04-28T04:39:17;96006.94;;;8.27;100.00
58385;BME280;44185;47.844;8.966;2023-04-28T04:41:42;96013.69;;;8.08;100.00
58385;BME280;44185;47.844;8.966;2023-04-28T04:44:08;96003.97;;;7.97;100.00
58385;BME280;44185;47.844;8.966;2023-04-28T04:46:33;96002.81;;;8.01;100.00
58385;BME280;44185;47.844;8.966;2023-04-28T04:49:00;96002.91;;;7.99;100.00
58385;BME280;44185;47.844;8.966;2023-04-28T04:51:25;95997.63;;;7.99;100.00
58385;BME280;44185;47.844;8.966;2023-04-28T04:53:51;95995.00;;;7.99;100.00
58385;BME280;44185;47.844;8.966;2023-04-28T04:56:16;95982.19;;;7.95;100.00
58385;BME280;44185;47.844;8.966;2023-04-28T04:58:42;95980.50;;;7.94;100.00
58385;BME280;44185;47.844;8.966;2023-04-28T05:01:07;95991.06;;;7.94;100.00
58385;BME280;44185;47.844;8.966;2023-04-28T05:03:33;95987.84;;;7.90;100.00
58385;BME280;44185;47.844;8.966;2023-04-28T05:06:00;95994.16;;;7.99;100.00
58385;BME280;44185;47.844;8.966;2023-04-28T05:08:25;95988.19;;;7.97;100.00
58385;BME280;44185;47.844;8.966;2023-04-28T05:10:51;95993.19;;;8.11;100.00
58385;BME280;44185;47.844;8.966;2023-04-28T05:13:16;95990.50;;;8.23;100.00
58385;BME280;44185;47.844;8.966;2023-04-28T05:15:41;95997.63;;;8.22;100.00
58385;BME280;44185;47.844;8.966;2023-04-28T05:18:07;95997.81;;;8.31;100.00
58385;BME280;44185;47.844;8.966;2023-04-28T05:20:32;96001.91;;;8.23;100.00
58385;BME280;44185;47.844;8.966;2023-04-28T05:22:59;96006.78;;;8.40;100.00
58385;BME280;44185;47.844;8.966;2023-04-28T05:25:24;96000.91;;;8.36;100.00
58385;BME280;44185;47.844;8.966;2023-04-28T05:27:50;96001.91;;;8.23;100.00
58385;BME280;44185;47.844;8.966;2023-04-28T05:30:15;96001.53;;;8.28;100.00
58385;BME280;44185;47.844;8.966;2023-04-28T05:32:41;96002.72;;;8.36;100.00
58385;BME280;44185;47.844;8.966;2023-04-28T05:35:07;95989.03;;;8.42;100.00
58385;BME280;44185;47.844;8.966;2023-04-28T05:37:32;95994.69;;;8.37;100.00
58385;BME280;44185;47.844;8.966;2023-04-28T05:39:59;96003.91;;;8.43;100.00
58385;BME280;44185;47.844;8.966;2023-04-28T05:42:25;95994.28;;;8.53;100.00
58385;BME280;44185;47.844;8.966;2023-04-28T05:44:50;95999.53;;;8.53;100.00
58385;BME280;44185;47.844;8.966;2023-04-28T05:47:16;96000.50;;;8.64;100.00
58385;BME280;44185;47.844;8.966;2023-04-28T05:49:41;96000.56;;;8.74;100.00
58385;BME280;44185;47.844;8.966;2023-04-28T05:52:06;96000.13;;;8.68;100.00
58385;BME280;44185;47.844;8.966;2023-04-28T05:54:32;96004.75;;;8.76;100.00
58385;BME280;44185;47.844;8.966;2023-04-28T05:56:59;96011.34;;;8.82;100.00
58385;BME280;44185;47.844;8.966;2023-04-28T05:59:24;96004.72;;;8.88;100.00
58385;BME280;44185;47.844;8.966;2023-04-28T06:01:50;96012.56;;;8.78;100.00
58385;BME280;44185;47.844;8.966;2023-04-28T06:04:15;96002.69;;;8.59;100.00
58385;BME280;44185;47.844;8.966;2023-04-28T06:06:41;96019.28;;;8.71;100.00
58385;BME280;44185;47.844;8.966;2023-04-28T06:09:07;96026.47;;;8.80;100.00
58385;BME280;44185;47.844;8.966;2023-04-28T06:11:32;96013.38;;;8.78;100.00
58385;BME280;44185;47.844;8.966;2023-04-28T06:13:59;96007.19;;;8.68;100.00
58385;BME280;44185;47.844;8.966;2023-04-28T06:16:24;96010.09;;;8.65;100.00
58385;BME280;44185;47.844;8.966;2023-04-28T06:18:50;96016.28;;;8.75;100.00
58385;BME280;44185;47.844;8.966;2023-04-28T06:21:15;96013.50;;;8.77;100.00
58385;BME280;44185;47.844;8.966;2023-04-28T06:23:41;96012.09;;;8.73;100.00
58385;BME280;44185;47.844;8.966;2023-04-28T06:26:06;96013.13;;;8.82;100.00
58385;BME280;44185;47.844;8.966;2023-04-28T06:28:33;96010.94;;;8.87;100.00
58385;BME280;44185;47.844;8.966;2023-04-28T06:31:00;96010.44;;;8.93;100.00
58385;BME280;44185;47.844;8.966;2023-04-28T06:33:25;96009.16;;;8.87;100.00
58385;BME280;44185;47.844;8.966;2023-04-28T06:35:51;95996.84;;;8.98;100.00
58385;BME280;44185;47.844;8.966;2023-04-28T06:38:17;96012.13;;;8.94;100.00
58385;BME280;44185;47.844;8.966;2023-04-28T06:40:43;96005.09;;;8.83;100.00
58385;BME280;44185;47.844;8.966;2023-04-28T06:43:08;95997.75;;;8.87;100.00
58385;BME280;44185;47.844;8.966;2023-04-28T06:45:34;96002.47;;;8.83;100.00
58385;BME280;44185;47.844;8.966;2023-04-28T06:48:00;96003.31;;;8.84;100.00
58385;BME280;44185;47.844;8.966;2023-04-28T06:50:26;96000.38;;;8.87;100.00
58385;BME280;44185;47.844;8.966;2023-04-28T06:52:51;95999.19;;;8.91;100.00
58385;BME280;44185;47.844;8.966;2023-04-28T06:55:17;96003.38;;;8.94;100.00
58385;BME280;44185;47.844;8.966;2023-04-28T06:57:43;95989.19;;;8.95;100.00
58385;BME280;44185;47.844;8.966;2023-04-28T07:00:09;95999.69;;;9.06;100.00
58385;BME280;44185;47.844;8.966;2023-04-28T07:02:35;95990.19;;;9.15;100.00
58385;BME280;44185;47.844;8.966;2023-04-28T07:05:02;95993.13;;;9.22;100.00
58385;BME280;44185;47.844;8.966;2023-04-28T07:07:28;95989.38;;;9.25;100.00
58385;BME280;44185;47.844;8.966;2023-04-28T07:09:53;95994.28;;;9.29;100.00
58385;BME280;44185;47.844;8.966;2023-04-28T07:12:19;95990.97;;;9.37;100.00
58385;BME280;44185;47.844;8.966;2023-04-28T07:14:45;95984.72;;;9.38;100.00
58385;BME280;44185;47.844;8.966;2023-04-28T07:17:10;95987.38;;;9.38;100.00
58385;BME280;44185;47.844;8.966;2023-04-28T07:19:36;95973.78;;;9.43;100.00
58385;BME280;44185;47.844;8.966;2023-04-28T07:22:03;95974.22;;;9.48;100.00
58385;BME280;44185;47.844;8.966;2023-04-28T07:24:29;95982.28;;;9.47;100.00
58385;BME280;44185;47.844;8.966;2023-04-28T07:26:54;95990.75;;;9.50;100.00
58385;BME280;44185;47.844;8.966;2023-04-28T07:29:19;95982.56;;;9.53;100.00
58385;BME280;44185;47.844;8.966;2023-04-28T07:31:45;95978.00;;;9.55;100.00
58385;BME280;44185;47.844;8.966;2023-04-28T07:34:10;95982.06;;;9.60;100.00
58385;BME280;44185;47.844;8.966;2023-04-28T07:36:36;95985.53;;;9.60;100.00
58385;BME280;44185;47.844;8.966;2023-04-28T07:39:03;96002.09;;;9.62;100.00
58385;BME280;44185;47.844;8.966;2023-04-28T07:41:29;96002.81;;;9.74;100.00
58385;BME280;44185;47.844;8.966;2023-04-28T07:43:54;96016.47;;;9.79;100.00
58385;BME280;44185;47.844;8.966;2023-04-28T07:46:20;96024.94;;;9.73;100.00
58385;BME280;44185;47.844;8.966;2023-04-28T07:48:45;96026.50;;;9.76;100.00
58385;BME280;44185;47.844;8.966;2023-04-28T07:51:10;96029.69;;;9.79;100.00
58385;BME280;44185;47.844;8.966;2023-04-28T07:53:36;96012.50;;;9.64;100.00
58385;BME280;44185;47.844;8.966;2023-04-28T07:56:03;96019.66;;;9.73;100.00
58385;BME280;44185;47.844;8.966;2023-04-28T07:58:30;96012.88;;;9.81;100.00
58385;BME280;44185;47.844;8.966;2023-04-28T08:00:55;96020.78;;;9.81;100.00
58385;BME280;44185;47.844;8.966;2023-04-28T08:03:21;96029.03;;;9.87;100.00
58385;BME280;44185;47.844;8.966;2023-04-28T08:05:47;96020.53;;;9.84;100.00
58385;BME280;44185;47.844;8.966;2023-04-28T08:08:12;96021.25;;;9.86;100.00
58385;BME280;44185;47.844;8.966;2023-04-28T08:10:38;96025.84;;;9.94;100.00
58385;BME280;44185;47.844;8.966;2023-04-28T08:13:04;96018.75;;;9.84;100.00
58385;BME280;44185;47.844;8.966;2023-04-28T08:15:30;96008.44;;;9.81;100.00
58385;BME280;44185;47.844;8.966;2023-04-28T08:17:55;96009.31;;;9.92;100.00
58385;BME280;44185;47.844;8.966;2023-04-28T08:20:21;96012.63;;;9.94;100.00
58385;BME280;44185;47.844;8.966;2023-04-28T08:22:47;96018.94;;;10.03;100.00
58385;BME280;44185;47.844;8.966;2023-04-28T08:25:12;96018.25;;;10.10;100.00
58385;BME280;44185;47.844;8.966;2023-04-28T08:27:38;96022.44;;;10.13;100.00
58385;BME280;44185;47.844;8.966;2023-04-28T08:30:06;96011.88;;;10.23;100.00
58385;BME280;44185;47.844;8.966;2023-04-28T08:32:32;96024.16;;;10.24;100.00
58385;BME280;44185;47.844;8.966;2023-04-28T08:34:57;96030.56;;;10.31;100.00
58385;BME280;44185;47.844;8.966;2023-04-28T08:37:23;96023.19;;;10.35;100.00
58385;BME280;44185;47.844;8.966;2023-04-28T08:39:48;96033.22;;;10.41;100.00
58385;BME280;44185;47.844;8.966;2023-04-28T08:42:14;96037.28;;;10.45;100.00
58385;BME280;44185;47.844;8.966;2023-04-28T08:44:40;96041.31;;;10.50;100.00
58385;BME280;44185;47.844;8.966;2023-04-28T08:47:11;96045.59;;;10.41;100.00
58385;BME280;44185;47.844;8.966;2023-04-28T08:49:37;96046.00;;;10.36;100.00
58385;BME280;44185;47.844;8.966;2023-04-28T08:52:09;96051.88;;;10.40;100.00
58385;BME280;44185;47.844;8.966;2023-04-28T08:54:37;96036.22;;;10.58;100.00
58385;BME280;44185;47.844;8.966;2023-04-28T08:57:03;96035.53;;;10.66;100.00
58385;BME280;44185;47.844;8.966;2023-04-28T08:59:29;96040.97;;;10.74;100.00
58385;BME280;44185;47.844;8.966;2023-04-28T09:01:55;96039.56;;;10.80;100.00
58385;BME280;44185;47.844;8.966;2023-04-28T09:04:22;96049.31;;;10.79;100.00
58385;BME280;44185;47.844;8.966;2023-04-28T09:06:47;96042.91;;;11.02;100.00
58385;BME280;44185;47.844;8.966;2023-04-28T09:09:20;96040.28;;;11.12;100.00
58385;BME280;44185;47.844;8.966;2023-04-28T09:11:56;96046.50;;;11.21;100.00
58385;BME280;44185;47.844;8.966;2023-04-28T09:14:22;96041.78;;;11.05;100.00
58385;BME280;44185;47.844;8.966;2023-04-28T09:16:48;96048.19;;;11.22;100.00
58385;BME280;44185;47.844;8.966;2023-04-28T09:19:13;96047.63;;;11.18;100.00
58385;BME280;44185;47.844;8.966;2023-04-28T09:21:51;96049.84;;;11.23;100.00
58385;BME280;44185;47.844;8.966;2023-04-28T09:24:27;96051.69;;;11.03;100.00
58385;BME280;44185;47.844;8.966;2023-04-28T09:26:53;96052.13;;;10.98;100.00
58385;BME280;44185;47.844;8.966;2023-04-28T09:29:19;96060.19;;;11.06;100.00
58385;BME280;44185;47.844;8.966;2023-04-28T09:31:44;96061.16;;;11.05;100.00
58385;BME280;44185;47.844;8.966;2023-04-28T09:34:10;96061.84;;;10.97;100.00
58385;BME280;44185;47.844;8.966;2023-04-28T09:36:35;96059.63;;;11.03;100.00
58385;BME280;44185;47.844;8.966;2023-04-28T09:39:02;96068.13;;;11.06;100.00
58385;BME280;44185;47.844;8.966;2023-04-28T09:41:35;96072.31;;;11.09;100.00
58385;BME280;44185;47.844;8.966;2023-04-28T09:44:09;96073.44;;;11.16;100.00
58385;BME280;44185;47.844;8.966;2023-04-28T09:46:34;96080.38;;;11.07;100.00
58385;BME280;44185;47.844;8.966;2023-04-28T09:49:00;96074.97;;;11.09;100.00
58385;BME280;44185;47.844;8.966;2023-04-28T09:51:26;96075.66;;;11.21;100.00
58385;BME280;44185;47.844;8.966;2023-04-28T09:53:51;96074.00;;;11.20;100.00
58385;BME280;44185;47.844;8.966;2023-04-28T09:56:19;96072.16;;;11.30;100.00
58385;BME280;44185;47.844;8.966;2023-04-28T09:58:46;96076.59;;;11.40;100.00
58385;BME280;44185;47.844;8.966;2023-04-28T10:01:14;96062.53;;;11.39;100.00
58385;BME280;44185;47.844;8.966;2023-04-28T10:03:40;96061.25;;;11.53;100.00
58385;BME280;44185;47.844;8.966;2023-04-28T10:06:07;96046.47;;;11.51;100.00
58385;BME280;44185;47.844;8.966;2023-04-28T10:08:32;96043.72;;;11.32;100.00
58385;BME280;44185;47.844;8.966;2023-04-28T10:10:58;96039.25;;;11.43;100.00
58385;BME280;44185;47.844;8.966;2023-04-28T10:13:25;96042.97;;;11.50;100.00
58385;BME280;44185;47.844;8.966;2023-04-28T10:15:50;96049.69;;;11.44;100.00
58385;BME280;44185;47.844;8.966;2023-04-28T10:18:16;96035.84;;;11.61;100.00
58385;BME280;44185;47.844;8.966;2023-04-28T10:20:43;96036.44;;;11.54;100.00
58385;BME280;44185;47.844;8.966;2023-04-28T10:27:02;96048.69;;;11.55;100.00
58385;BME280;44185;47.844;8.966;2023-04-28T10:29:30;96056.19;;;11.60;100.00
58385;BME280;44185;47.844;8.966;2023-04-28T10:32:19;96047.41;;;11.70;100.00
58385;BME280;44185;47.844;8.966;2023-04-28T10:34:46;96054.78;;;11.66;100.00
58385;BME280;44185;47.844;8.966;2023-04-28T10:37:11;96056.75;;;11.64;100.00
58385;BME280;44185;47.844;8.966;2023-04-28T10:39:37;96046.00;;;11.65;100.00
58385;BME280;44185;47.844;8.966;2023-04-28T10:42:02;96049.34;;;11.77;100.00
58385;BME280;44185;47.844;8.966;2023-04-28T10:44:42;96043.13;;;11.97;100.00
58385;BME280;44185;47.844;8.966;2023-04-28T10:47:08;96047.00;;;12.02;100.00
58385;BME280;44185;47.844;8.966;2023-04-28T10:50:08;96047.91;;;12.21;100.00
58385;BME280;44185;47.844;8.966;2023-04-28T10:52:47;96046.88;;;12.32;100.00
58385;BME280;44185;47.844;8.966;2023-04-28T10:55:39;96043.84;;;12.27;100.00
58385;BME280;44185;47.844;8.966;2023-04-28T10:58:29;96044.72;;;12.46;100.00
58385;BME280;44185;47.844;8.966;2023-04-28T11:01:26;96045.69;;;12.45;100.00
58385;BME280;44185;47.844;8.966;2023-04-28T11:03:52;96045.03;;;12.61;100.00
58385;BME280;44185;47.844;8.966;2023-04-28T11:06:19;96039.06;;;12.77;100.00
58385;BME280;44185;47.844;8.966;2023-04-28T11:08:45;96040.56;;;12.80;100.00
58385;BME280;44185;47.844;8.966;2023-04-28T11:11:21;96038.38;;;12.75;100.00
58385;BME280;44185;47.844;8.966;2023-04-28T11:13:47;96037.41;;;12.76;100.00
58385;BME280;44185;47.844;8.966;2023-04-28T11:16:22;96044.25;;;12.51;100.00
58385;BME280;44185;47.844;8.966;2023-04-28T11:18:51;96041.69;;;12.59;100.00
58385;BME280;44185;47.844;8.966;2023-04-28T11:21:17;96044.38;;;12.77;100.00
58385;BME280;44185;47.844;8.966;2023-04-28T11:23:43;96053.25;;;12.86;100.00
58385;BME280;44185;47.844;8.966;2023-04-28T11:26:09;96045.88;;;12.80;100.00
58385;BME280;44185;47.844;8.966;2023-04-28T11:28:34;96051.50;;;12.77;100.00
58385;BME280;44185;47.844;8.966;2023-04-28T11:31:09;96039.69;;;12.71;100.00
58385;BME280;44185;47.844;8.966;2023-04-28T11:33:36;96042.34;;;12.71;100.00
58385;BME280;44185;47.844;8.966;2023-04-28T11:36:02;96036.19;;;12.71;100.00
58385;BME280;44185;47.844;8.966;2023-04-28T11:38:28;96045.22;;;12.96;100.00
58385;BME280;44185;47.844;8.966;2023-04-28T11:40:56;96044.97;;;13.08;100.00
58385;BME280;44185;47.844;8.966;2023-04-28T11:43:28;96035.94;;;13.19;100.00
58385;BME280;44185;47.844;8.966;2023-04-28T11:45:53;96035.94;;;13.19;100.00
58385;BME280;44185;47.844;8.966;2023-04-28T11:48:21;96035.88;;;13.10;100.00
58385;BME280;44185;47.844;8.966;2023-04-28T11:50:48;96045.59;;;13.01;100.00
58385;BME280;44185;47.844;8.966;2023-04-28T11:53:13;96033.22;;;13.10;100.00
58385;BME280;44185;47.844;8.966;2023-04-28T11:55:39;96030.75;;;13.17;100.00
58385;BME280;44185;47.844;8.966;2023-04-28T11:58:17;96042.56;;;13.60;100.00
58385;BME280;44185;47.844;8.966;2023-04-28T12:00:42;96034.47;;;13.70;100.00
58385;BME280;44185;47.844;8.966;2023-04-28T12:03:08;96032.84;;;14.04;100.00
58385;BME280;44185;47.844;8.966;2023-04-28T12:05:34;96040.84;;;13.77;100.00
58385;BME280;44185;47.844;8.966;2023-04-28T12:08:01;96038.53;;;13.55;100.00
58385;BME280;44185;47.844;8.966;2023-04-28T12:10:26;96031.59;;;13.89;100.00
58385;BME280;44185;47.844;8.966;2023-04-28T12:12:52;96032.13;;;13.93;100.00
58385;BME280;44185;47.844;8.966;2023-04-28T12:15:17;96033.72;;;13.86;100.00
58385;BME280;44185;47.844;8.966;2023-04-28T12:17:43;96038.25;;;13.85;100.00
58385;BME280;44185;47.844;8.966;2023-04-28T12:20:10;96037.28;;;13.95;100.00
58385;BME280;44185;47.844;8.966;2023-04-28T12:22:43;96033.59;;;13.87;100.00
58385;BME280;44185;47.844;8.966;2023-04-28T12:25:13;96044.19;;;13.79;100.00
58385;BME280;44185;47.844;8.966;2023-04-28T12:27:39;96034.44;;;13.88;100.00
58385;BME280;44185;47.844;8.966;2023-04-28T12:30:23;96037.09;;;13.96;100.00
58385;BME280;44185;47.844;8.966;2023-04-28T12:32:48;96032.88;;;13.77;100.00
58385;BME280;44185;47.844;8.966;2023-04-28T12:35:14;96032.56;;;13.88;100.00
58385;BME280;44185;47.844;8.966;2023-04-28T12:37:41;96035.06;;;13.82;100.00
58385;BME280;44185;47.844;8.966;2023-04-28T12:40:07;96034.69;;;13.76;100.00
58385;BME280;44185;47.844;8.966;2023-04-28T12:42:34;96028.75;;;13.91;100.00
58385;BME280;44185;47.844;8.966;2023-04-28T12:45:00;96028.75;;;13.91;100.00
58385;BME280;44185;47.844;8.966;2023-04-28T12:47:25;96025.75;;;14.21;100.00
58385;BME280;44185;47.844;8.966;2023-04-28T12:49:51;96026.41;;;14.23;100.00
58385;BME280;44185;47.844;8.966;2023-04-28T12:52:17;96016.31;;;14.35;100.00
58385;BME280;44185;47.844;8.966;2023-04-28T12:54:43;96012.44;;;14.21;100.00
58385;BME280;44185;47.844;8.966;2023-04-28T12:57:08;96006.66;;;14.34;100.00
58385;BME280;44185;47.844;8.966;2023-04-28T12:59:35;96010.78;;;14.20;100.00